createdAt,value
2023-01-07T00:00:08.725Z,11.50
2023-01-07T00:02:38.273Z,11.40
2023-01-07T00:05:06.743Z,11.30
2023-01-07T00:07:36.944Z,11.40
2023-01-07T00:10:05.040Z,11.30
2023-01-07T00:12:36.040Z,11.30
2023-01-07T00:15:03.406Z,11.40
2023-01-07T00:17:30.585Z,11.40
2023-01-07T00:19:57.956Z,11.40
2023-01-07T00:22:25.043Z,11.40
2023-01-07T00:24:59.826Z,11.40
2023-01-07T00:27:27.162Z,11.50
2023-01-07T00:29:55.776Z,11.50
2023-01-07T00:32:45.532Z,11.50
2023-01-07T00:35:23.264Z,11.40
2023-01-07T00:37:56.448Z,11.50
2023-01-07T00:40:25.814Z,11.40
2023-01-07T00:42:58.806Z,11.40
2023-01-07T00:45:32.628Z,11.40
2023-01-07T00:48:01.298Z,11.30
2023-01-07T00:50:31.510Z,11.30
2023-01-07T00:53:00.260Z,11.30
2023-01-07T00:55:28.591Z,11.30
2023-01-07T00:57:58.836Z,11.30
2023-01-07T01:00:27.548Z,11.40
2023-01-07T01:03:03.771Z,11.40
2023-01-07T01:05:30.829Z,11.40
2023-01-07T01:08:03.207Z,11.30
2023-01-07T01:10:33.546Z,11.40
2023-01-07T01:13:04.244Z,11.40
2023-01-07T01:15:32.881Z,11.40
2023-01-07T01:17:59.910Z,11.30
2023-01-07T01:20:31.485Z,11.30
2023-01-07T01:22:58.620Z,11.40
2023-01-07T01:25:25.771Z,11.40
2023-01-07T01:27:52.940Z,11.30
2023-01-07T01:30:20.105Z,11.30
2023-01-07T01:32:49.113Z,11.30
2023-01-07T01:35:17.560Z,11.30
2023-01-07T01:37:44.893Z,11.30
2023-01-07T01:40:16.984Z,11.20
2023-01-07T01:42:47.404Z,11.30
2023-01-07T01:45:15.458Z,11.30
2023-01-07T01:47:57.344Z,11.20
2023-01-07T01:50:29.792Z,11.20
2023-01-07T01:53:02.746Z,11.10
2023-01-07T01:55:35.904Z,11.10
2023-01-07T01:58:08.232Z,11.10
2023-01-07T02:00:36.330Z,11.10
2023-01-07T02:03:08.719Z,11.10
2023-01-07T02:05:40.658Z,11.20
2023-01-07T02:08:08.632Z,11.20
2023-01-07T02:10:36.019Z,11.20
2023-01-07T02:13:32.342Z,11.20
2023-01-07T02:16:05.717Z,11.20
2023-01-07T02:19:06.712Z,11.20
2023-01-07T02:21:49.873Z,11.20
2023-01-07T02:24:54.986Z,11.10
2023-01-07T02:28:06.021Z,11.10
2023-01-07T02:31:17.749Z,11.10
2023-01-07T02:33:55.659Z,11.10
2023-01-07T02:36:53.168Z,11.10
2023-01-07T02:39:38.960Z,11.20
2023-01-07T02:42:18.178Z,11.10
2023-01-07T02:44:54.526Z,11.10
2023-01-07T02:47:30.438Z,11.10
2023-01-07T02:49:58.817Z,11.10
2023-01-07T02:52:29.362Z,11.10
2023-01-07T02:55:04.994Z,11.00
2023-01-07T02:58:32.240Z,11.10
2023-01-07T03:01:21.829Z,11.10
2023-01-07T03:04:11.781Z,11.10
2023-01-07T03:06:56.129Z,11.00
2023-01-07T03:09:33.373Z,11.10
2023-01-07T03:12:10.845Z,11.10
2023-01-07T03:14:43.616Z,11.10
2023-01-07T03:17:20.315Z,11.20
2023-01-07T03:19:52.377Z,11.10
2023-01-07T03:22:28.294Z,11.10
2023-01-07T03:24:57.484Z,11.10
2023-01-07T03:27:27.904Z,11.10
2023-01-07T03:29:56.439Z,11.10
2023-01-07T03:32:27.642Z,11.10
2023-01-07T03:34:57.932Z,11.10
2023-01-07T03:37:34.842Z,11.10
2023-01-07T03:40:06.452Z,11.10
2023-01-07T03:42:42.864Z,11.10
2023-01-07T03:45:13.311Z,11.20
2023-01-07T03:47:47.217Z,11.20
2023-01-07T03:50:14.529Z,11.10
2023-01-07T03:52:43.117Z,11.20
2023-01-07T03:55:11.012Z,11.20
2023-01-07T03:57:38.508Z,11.20
2023-01-07T04:00:09.027Z,11.20
2023-01-07T04:02:45.742Z,11.20
2023-01-07T04:05:12.722Z,11.10
2023-01-07T04:07:44.443Z,11.10
2023-01-07T04:10:14.691Z,11.10
2023-01-07T04:12:41.995Z,11.10
2023-01-07T04:15:11.766Z,11.20
2023-01-07T04:17:38.938Z,11.20
2023-01-07T04:20:07.937Z,11.10
2023-01-07T04:22:35.851Z,11.10
2023-01-07T04:25:04.851Z,11.20
2023-01-07T04:27:32.068Z,11.10
2023-01-07T04:30:02.176Z,11.10
2023-01-07T04:32:29.268Z,11.10
2023-01-07T04:34:56.387Z,11.10
2023-01-07T04:37:23.799Z,11.10
2023-01-07T04:39:50.730Z,11.10
2023-01-07T04:42:19.130Z,11.10
2023-01-07T04:44:46.154Z,11.10
2023-01-07T04:47:13.757Z,11.10
2023-01-07T04:49:40.739Z,11.00
2023-01-07T04:52:14.074Z,11.10
2023-01-07T04:54:41.091Z,11.10
2023-01-07T04:57:08.467Z,11.10
2023-01-07T04:59:36.943Z,11.20
2023-01-07T05:02:04.215Z,11.10
2023-01-07T05:04:31.421Z,11.10
2023-01-07T05:06:58.690Z,11.10
2023-01-07T05:09:28.753Z,11.10
2023-01-07T05:11:56.091Z,11.20
2023-01-07T05:14:23.259Z,11.10
2023-01-07T05:16:53.530Z,11.10
2023-01-07T05:19:21.802Z,11.10
2023-01-07T05:21:55.094Z,11.10
2023-01-07T05:24:22.132Z,11.00
2023-01-07T05:26:49.393Z,11.00
2023-01-07T05:29:25.590Z,11.00
2023-01-07T05:32:05.020Z,11.00
2023-01-07T05:34:32.221Z,11.00
2023-01-07T05:36:59.468Z,11.00
2023-01-07T05:39:26.612Z,10.90
2023-01-07T05:41:57.924Z,10.90
2023-01-07T05:44:31.240Z,10.80
2023-01-07T05:46:58.416Z,10.80
2023-01-07T05:49:27.085Z,10.80
2023-01-07T05:51:54.071Z,10.70
2023-01-07T05:54:21.372Z,10.70
2023-01-07T05:56:51.436Z,10.70
2023-01-07T05:59:18.627Z,10.70
2023-01-07T06:01:45.867Z,10.80
2023-01-07T06:04:13.002Z,10.80
2023-01-07T06:06:43.556Z,10.90
2023-01-07T06:09:16.456Z,10.80
2023-01-07T06:11:44.111Z,10.90
2023-01-07T06:14:14.480Z,10.80
2023-01-07T06:16:41.683Z,10.80
2023-01-07T06:19:12.488Z,10.80
2023-01-07T06:21:40.963Z,10.80
2023-01-07T06:24:08.595Z,10.80
2023-01-07T06:26:38.546Z,10.80
2023-01-07T06:29:09.890Z,10.80
2023-01-07T06:31:40.184Z,10.80
2023-01-07T06:34:07.439Z,10.80
2023-01-07T06:36:34.701Z,10.80
2023-01-07T06:39:03.558Z,10.80
2023-01-07T06:41:31.722Z,10.80
2023-01-07T06:43:58.666Z,10.80
2023-01-07T06:46:26.090Z,10.70
2023-01-07T06:48:56.516Z,10.70
2023-01-07T06:51:25.529Z,10.80
2023-01-07T06:53:55.298Z,10.70
2023-01-07T06:56:26.775Z,10.70
2023-01-07T06:58:53.807Z,10.70
2023-01-07T07:01:21.261Z,10.70
2023-01-07T07:03:48.292Z,10.70
2023-01-07T07:06:18.835Z,10.70
2023-01-07T07:08:45.829Z,10.70
2023-01-07T07:11:19.181Z,10.70
2023-01-07T07:13:47.584Z,10.60
2023-01-07T07:16:14.626Z,10.60
2023-01-07T07:18:41.780Z,10.70
2023-01-07T07:21:09.704Z,10.70
2023-01-07T07:23:43.298Z,10.60
2023-01-07T07:26:10.531Z,10.60
2023-01-07T07:28:39.275Z,10.60
2023-01-07T07:31:07.978Z,10.60
2023-01-07T07:33:35.788Z,10.60
2023-01-07T07:36:02.771Z,10.60
2023-01-07T07:38:29.791Z,10.60
2023-01-07T07:40:56.931Z,10.60
2023-01-07T07:43:23.958Z,10.70
2023-01-07T07:45:51.032Z,10.70
2023-01-07T07:48:19.838Z,10.70
2023-01-07T07:50:53.514Z,10.70
2023-01-07T07:53:23.813Z,10.70
2023-01-07T07:55:51.092Z,10.70
2023-01-07T07:58:18.256Z,10.70
2023-01-07T08:00:46.462Z,10.70
2023-01-07T08:03:13.808Z,10.70
2023-01-07T08:05:43.638Z,10.70
2023-01-07T08:08:13.618Z,10.70
2023-01-07T08:10:41.637Z,10.70
2023-01-07T08:13:10.143Z,10.70
2023-01-07T08:15:42.694Z,10.70
2023-01-07T08:18:10.597Z,10.70
2023-01-07T08:20:38.865Z,10.70
2023-01-07T08:23:09.178Z,10.60
2023-01-07T08:25:36.434Z,10.70
2023-01-07T08:28:04.159Z,10.60
2023-01-07T08:30:31.550Z,10.60
2023-01-07T08:32:59.308Z,10.60
2023-01-07T08:35:26.823Z,10.70
2023-01-07T08:38:02.365Z,10.70
2023-01-07T08:40:31.404Z,10.70
2023-01-07T08:43:03.427Z,10.70
2023-01-07T08:45:31.984Z,10.70
2023-01-07T08:47:59.642Z,10.70
2023-01-07T08:50:28.285Z,10.80
2023-01-07T08:53:01.194Z,10.90
2023-01-07T08:55:30.696Z,11.00
2023-01-07T08:57:57.920Z,10.90
2023-01-07T09:00:25.756Z,10.90
2023-01-07T09:03:03.676Z,10.90
2023-01-07T09:05:31.085Z,10.90
2023-01-07T09:08:03.746Z,10.90
2023-01-07T09:10:32.738Z,10.90
2023-01-07T09:13:00.954Z,10.90
2023-01-07T09:15:28.399Z,10.90
2023-01-07T09:17:58.497Z,10.90
2023-01-07T09:20:25.848Z,10.80
2023-01-07T09:22:53.103Z,10.90
2023-01-07T09:25:23.326Z,10.90
2023-01-07T09:27:51.913Z,10.90
2023-01-07T09:30:19.387Z,10.90
2023-01-07T09:32:55.324Z,11.00
2023-01-07T09:35:25.646Z,11.00
2023-01-07T09:37:52.903Z,11.00
2023-01-07T09:40:29.048Z,11.00
2023-01-07T09:43:07.454Z,11.00
2023-01-07T09:45:39.436Z,11.00
2023-01-07T09:48:18.991Z,11.00
2023-01-07T09:50:58.271Z,11.00
2023-01-07T09:53:33.850Z,11.00
2023-01-07T09:56:12.504Z,11.00
2023-01-07T09:58:44.943Z,10.90
2023-01-07T10:01:24.868Z,11.00
2023-01-07T10:04:03.286Z,11.00
2023-01-07T10:06:43.922Z,11.10
2023-01-07T10:09:26.417Z,11.10
2023-01-07T10:12:15.900Z,11.10
2023-01-07T10:15:32.764Z,11.10
2023-01-07T10:18:26.927Z,11.10
2023-01-07T10:21:08.335Z,11.10
2023-01-07T10:23:40.979Z,11.20
2023-01-07T10:26:19.698Z,11.30
2023-01-07T10:28:52.379Z,11.30
2023-01-07T10:31:24.447Z,11.30
2023-01-07T10:33:52.826Z,11.40
2023-01-07T10:36:25.079Z,11.40
2023-01-07T10:39:08.174Z,11.40
2023-01-07T10:41:48.638Z,11.40
2023-01-07T10:45:11.951Z,11.40
2023-01-07T10:47:57.831Z,11.30
2023-01-07T10:50:49.585Z,11.40
2023-01-07T10:53:31.705Z,11.40
2023-01-07T10:56:10.966Z,11.50
2023-01-07T10:58:42.367Z,11.50
2023-01-07T11:01:24.148Z,11.60
2023-01-07T11:03:54.798Z,11.50
2023-01-07T11:06:35.556Z,11.50
2023-01-07T11:09:07.588Z,11.50
2023-01-07T11:11:35.995Z,11.60
2023-01-07T11:14:10.527Z,11.60
2023-01-07T11:16:44.646Z,11.60
2023-01-07T11:19:16.546Z,11.60
2023-01-07T11:21:46.299Z,11.60
2023-01-07T11:24:31.219Z,11.60
2023-01-07T11:27:05.921Z,11.60
2023-01-07T11:29:42.961Z,11.60
2023-01-07T11:32:26.245Z,11.60
2023-01-07T11:35:21.809Z,11.50
2023-01-07T11:37:50.677Z,11.50
2023-01-07T11:40:25.562Z,11.60
2023-01-07T11:42:56.492Z,11.60
2023-01-07T11:45:27.147Z,11.60
2023-01-07T11:48:06.272Z,11.60
2023-01-07T11:50:41.563Z,11.50
2023-01-07T11:53:33.617Z,11.60
2023-01-07T11:56:06.540Z,11.50
2023-01-07T11:58:36.515Z,11.50
2023-01-07T12:01:18.540Z,11.60
2023-01-07T12:04:13.659Z,11.60
2023-01-07T12:06:46.743Z,11.60
2023-01-07T12:09:26.631Z,11.50
2023-01-07T12:11:57.242Z,11.50
2023-01-07T12:14:28.080Z,11.50
2023-01-07T12:17:07.987Z,11.50
2023-01-07T12:19:59.260Z,11.50
2023-01-07T12:22:45.132Z,11.50
2023-01-07T12:25:42.781Z,11.50
2023-01-07T12:28:15.041Z,11.60
2023-01-07T12:31:17.407Z,11.60
2023-01-07T12:34:13.567Z,11.50
2023-01-07T12:36:53.867Z,11.50
2023-01-07T12:39:30.779Z,11.50
2023-01-07T12:42:04.601Z,11.50
2023-01-07T12:44:31.903Z,11.40
2023-01-07T12:47:31.120Z,11.40
2023-01-07T12:50:01.762Z,11.50
2023-01-07T12:52:41.906Z,11.40
2023-01-07T12:55:21.025Z,11.40
2023-01-07T12:58:12.154Z,11.40
2023-01-07T13:00:46.688Z,11.50
2023-01-07T13:03:25.783Z,11.40
2023-01-07T13:05:57.219Z,11.40
2023-01-07T13:08:38.005Z,11.40
2023-01-07T13:11:43.834Z,11.40
2023-01-07T13:14:20.547Z,11.40
2023-01-07T13:16:59.866Z,11.40
2023-01-07T13:19:27.219Z,11.40
2023-01-07T13:21:55.223Z,11.40
2023-01-07T13:24:55.599Z,11.30
2023-01-07T13:27:33.831Z,11.40
2023-01-07T13:30:15.023Z,11.40
2023-01-07T13:33:14.027Z,11.30
2023-01-07T13:36:04.781Z,11.30
2023-01-07T13:39:05.116Z,11.30
2023-01-07T13:41:53.849Z,11.30
2023-01-07T13:45:02.068Z,11.30
2023-01-07T13:47:42.467Z,11.30
2023-01-07T13:50:29.717Z,11.30
2023-01-07T13:53:00.754Z,11.40
2023-01-07T13:55:38.602Z,11.40
2023-01-07T13:58:39.930Z,11.40
2023-01-07T14:01:09.974Z,11.40
2023-01-07T14:04:03.225Z,11.40
2023-01-07T14:06:41.915Z,11.40
2023-01-07T14:09:34.856Z,11.40
2023-01-07T14:12:50.284Z,11.50
2023-01-07T14:16:04.425Z,11.50
2023-01-07T14:19:09.519Z,11.50
2023-01-07T14:21:58.011Z,11.40
2023-01-07T14:24:56.547Z,11.40
2023-01-07T14:28:12.795Z,11.40
2023-01-07T14:30:46.132Z,11.50
2023-01-07T14:33:27.908Z,11.50
2023-01-07T14:35:59.783Z,11.50
2023-01-07T14:39:07.479Z,11.40
2023-01-07T14:41:36.649Z,11.50
2023-01-07T14:44:28.915Z,11.40
2023-01-07T14:47:03.303Z,11.40
2023-01-07T14:50:06.397Z,11.40
2023-01-07T14:53:37.685Z,11.40
2023-01-07T14:56:30.425Z,11.30
2023-01-07T15:00:07.393Z,11.30
2023-01-07T15:03:23.141Z,11.40
2023-01-07T15:06:19.945Z,11.40
2023-01-07T15:09:18.715Z,11.30
2023-01-07T15:12:06.761Z,11.40
2023-01-07T15:15:00.758Z,11.30
2023-01-07T15:17:28.342Z,11.30
2023-01-07T15:19:56.856Z,11.30
2023-01-07T15:23:00.602Z,11.40
2023-01-07T15:25:55.399Z,11.40
2023-01-07T15:28:37.277Z,11.40
2023-01-07T15:31:17.326Z,11.40
2023-01-07T15:34:01.959Z,11.40
2023-01-07T15:36:41.426Z,11.40
2023-01-07T15:39:22.704Z,11.40
2023-01-07T15:42:03.811Z,11.40
2023-01-07T15:44:40.497Z,11.40
2023-01-07T15:47:36.521Z,11.30
2023-01-07T15:50:27.128Z,11.30
2023-01-07T15:52:56.212Z,11.30
2023-01-07T15:55:27.797Z,11.30
2023-01-07T15:58:05.614Z,11.30
2023-01-07T16:00:36.967Z,11.30
2023-01-07T16:03:05.716Z,11.40
2023-01-07T16:05:37.166Z,11.40
2023-01-07T16:08:06.242Z,11.30
2023-01-07T16:10:35.853Z,11.30
2023-01-07T16:13:18.570Z,11.30
2023-01-07T16:15:58.358Z,11.30
2023-01-07T16:18:25.549Z,11.30
2023-01-07T16:21:01.877Z,11.30
2023-01-07T16:23:31.164Z,11.30
2023-01-07T16:26:04.127Z,11.40
2023-01-07T16:28:37.167Z,11.30
2023-01-07T16:31:07.664Z,11.30
2023-01-07T16:33:37.734Z,11.30
2023-01-07T16:36:09.534Z,11.20
2023-01-07T16:38:40.216Z,11.20
2023-01-07T16:41:19.369Z,11.20
2023-01-07T16:43:55.027Z,11.10
2023-01-07T16:46:30.321Z,11.10
2023-01-07T16:49:28.354Z,11.10
2023-01-07T16:52:08.379Z,11.10
2023-01-07T16:54:39.887Z,11.10
2023-01-07T16:57:28.755Z,11.00
2023-01-07T17:00:07.958Z,11.10
2023-01-07T17:02:48.924Z,11.00
2023-01-07T17:05:19.993Z,10.90
2023-01-07T17:07:56.071Z,10.90
2023-01-07T17:10:31.209Z,10.90
2023-01-07T17:13:27.483Z,10.90
2023-01-07T17:16:21.499Z,10.90
2023-01-07T17:18:49.194Z,10.90
2023-01-07T17:21:43.865Z,10.90
2023-01-07T17:24:46.950Z,10.80
2023-01-07T17:27:25.634Z,10.80
2023-01-07T17:29:55.951Z,10.80
2023-01-07T17:32:36.660Z,10.80
2023-01-07T17:35:06.873Z,10.80
2023-01-07T17:37:43.389Z,10.80
2023-01-07T17:40:12.542Z,10.60
2023-01-07T17:43:00.035Z,10.50
2023-01-07T17:45:28.978Z,10.50
2023-01-07T17:48:00.019Z,10.50
2023-01-07T17:50:35.783Z,10.30
2023-01-07T17:53:09.573Z,10.20
2023-01-07T17:55:41.599Z,10.20
2023-01-07T17:58:22.504Z,10.00
2023-01-07T18:00:49.923Z,9.80
2023-01-07T18:03:18.675Z,9.80
2023-01-07T18:05:46.038Z,9.70
2023-01-07T18:08:19.582Z,9.70
2023-01-07T18:11:06.041Z,9.80
2023-01-07T18:13:42.378Z,9.90
2023-01-07T18:16:13.813Z,9.90
2023-01-07T18:18:45.451Z,9.70
2023-01-07T18:21:16.184Z,9.60
2023-01-07T18:23:45.810Z,9.40
2023-01-07T18:26:13.343Z,9.50
2023-01-07T18:28:44.751Z,9.50
2023-01-07T18:31:15.191Z,9.60
2023-01-07T18:33:47.520Z,9.40
2023-01-07T18:36:14.719Z,9.50
2023-01-07T18:38:41.951Z,9.40
2023-01-07T18:41:09.209Z,9.30
2023-01-07T18:43:36.730Z,9.20
2023-01-07T18:46:09.876Z,9.20
2023-01-07T18:48:38.200Z,9.20
2023-01-07T18:51:11.616Z,9.20
2023-01-07T18:53:39.139Z,9.20
2023-01-07T18:56:13.847Z,9.10
2023-01-07T18:58:44.070Z,9.10
2023-01-07T19:01:11.920Z,9.00
2023-01-07T19:03:39.662Z,9.00
2023-01-07T19:06:10.291Z,8.90
2023-01-07T19:08:42.024Z,8.90
2023-01-07T19:11:11.852Z,8.90
2023-01-07T19:13:40.590Z,8.90
2023-01-07T19:16:11.906Z,8.80
2023-01-07T19:18:45.630Z,8.80
2023-01-07T19:21:15.183Z,8.80
2023-01-07T19:23:49.005Z,8.80
2023-01-07T19:26:19.271Z,8.70
2023-01-07T19:28:57.652Z,8.80
2023-01-07T19:31:25.317Z,8.90
2023-01-07T19:33:53.355Z,8.90
2023-01-07T19:36:21.781Z,8.80
2023-01-07T19:38:53.350Z,8.80
2023-01-07T19:41:22.469Z,8.90
2023-01-07T19:43:53.659Z,8.90
2023-01-07T19:46:20.615Z,8.90
2023-01-07T19:48:53.813Z,9.10
2023-01-07T19:51:28.320Z,9.10
2023-01-07T19:54:03.676Z,8.90
2023-01-07T19:56:37.420Z,8.90
2023-01-07T19:59:04.526Z,8.60
2023-01-07T20:01:31.780Z,8.60
2023-01-07T20:03:59.563Z,8.50
2023-01-07T20:06:29.642Z,8.30
2023-01-07T20:09:10.455Z,8.40
2023-01-07T20:11:38.517Z,8.50
2023-01-07T20:14:07.427Z,8.40
2023-01-07T20:16:36.855Z,8.50
2023-01-07T20:19:05.324Z,8.50
2023-01-07T20:21:33.390Z,8.50
2023-01-07T20:24:06.326Z,8.40
2023-01-07T20:26:34.912Z,8.50
2023-01-07T20:29:03.171Z,8.60
2023-01-07T20:31:31.409Z,8.60
2023-01-07T20:33:59.930Z,8.50
2023-01-07T20:36:29.404Z,8.40
2023-01-07T20:38:57.529Z,8.40
2023-01-07T20:41:27.769Z,8.50
2023-01-07T20:44:00.714Z,8.40
2023-01-07T20:46:30.030Z,8.40
2023-01-07T20:48:57.755Z,8.30
2023-01-07T20:51:34.235Z,8.40
2023-01-07T20:54:06.326Z,8.30
2023-01-07T20:56:36.315Z,8.40
2023-01-07T20:59:06.956Z,8.40
2023-01-07T21:01:34.500Z,8.20
2023-01-07T21:04:02.295Z,8.20
2023-01-07T21:06:29.790Z,8.20
2023-01-07T21:08:57.019Z,8.20
2023-01-07T21:11:25.971Z,8.20
2023-01-07T21:13:56.696Z,8.20
2023-01-07T21:16:32.829Z,8.30
2023-01-07T21:18:59.947Z,8.30
2023-01-07T21:21:28.089Z,8.40
2023-01-07T21:24:00.910Z,8.40
2023-01-07T21:26:28.175Z,8.30
2023-01-07T21:28:57.157Z,8.30
2023-01-07T21:31:25.564Z,8.40
2023-01-07T21:33:59.363Z,8.40
2023-01-07T21:36:35.803Z,8.50
2023-01-07T21:39:03.371Z,8.40
2023-01-07T21:41:35.319Z,8.40
2023-01-07T21:44:04.384Z,8.40
2023-01-07T21:46:34.621Z,8.30
2023-01-07T21:49:04.412Z,8.40
2023-01-07T21:51:31.700Z,8.40
2023-01-07T21:53:59.328Z,8.40
2023-01-07T21:56:31.760Z,8.40
2023-01-07T21:59:00.618Z,8.50
2023-01-07T22:01:29.740Z,8.50
2023-01-07T22:04:00.964Z,8.40
2023-01-07T22:06:36.377Z,8.40
2023-01-07T22:09:07.295Z,8.40
2023-01-07T22:11:38.750Z,8.40
2023-01-07T22:14:06.731Z,8.40
2023-01-07T22:16:35.246Z,8.50
2023-01-07T22:19:05.633Z,8.60
2023-01-07T22:21:33.093Z,8.60
2023-01-07T22:24:01.654Z,8.50
2023-01-07T22:26:29.035Z,8.50
2023-01-07T22:29:01.797Z,8.40
2023-01-07T22:31:33.084Z,8.40
2023-01-07T22:34:05.124Z,8.40
2023-01-07T22:36:41.880Z,8.40
2023-01-07T22:39:14.661Z,8.40
2023-01-07T22:41:42.939Z,8.50
2023-01-07T22:44:19.992Z,8.60
2023-01-07T22:46:48.775Z,8.60
2023-01-07T22:49:23.148Z,8.50
2023-01-07T22:51:56.448Z,8.60
2023-01-07T22:54:26.843Z,8.50
2023-01-07T22:57:04.183Z,8.60
2023-01-07T22:59:35.864Z,8.60
2023-01-07T23:02:06.957Z,8.70
2023-01-07T23:04:35.845Z,8.60
2023-01-07T23:07:03.898Z,8.60
2023-01-07T23:09:31.304Z,8.60
2023-01-07T23:12:01.476Z,8.60
2023-01-07T23:14:30.202Z,8.60
2023-01-07T23:17:00.574Z,8.60
2023-01-07T23:19:27.651Z,8.50
2023-01-07T23:21:59.359Z,8.60
2023-01-07T23:24:26.340Z,8.60
2023-01-07T23:26:54.608Z,8.70
2023-01-07T23:29:24.928Z,8.80
2023-01-07T23:31:51.997Z,8.80
2023-01-07T23:34:19.325Z,8.70
2023-01-07T23:36:53.329Z,8.70
2023-01-07T23:39:24.983Z,8.70
2023-01-07T23:41:52.133Z,8.70
2023-01-07T23:44:19.531Z,8.60
2023-01-07T23:46:46.994Z,8.50
2023-01-07T23:49:16.510Z,8.60
2023-01-07T23:51:45.761Z,8.70
2023-01-07T23:54:13.205Z,8.70
2023-01-07T23:56:45.137Z,8.70
2023-01-07T23:59:15.722Z,8.70
